Quick Links (Output Below):   Max & Min Temps   /   Climate Reports   /   Zone Forecasts
River Forecasts   /   Forestry Forecasts   /   Aviation Forecasts   /   Radars   /   Features

Terminal Aerodrome Forecast (Monticello)

Pick a Site:
Arkadelphia | El Dorado | Fayetteville | Fort Smith | Harrison | Highfill | Hot Springs | Jonesboro
Little Rock | Monticello | Mountain Home | Pine Bluff | Texarkana
 Forecast 

KLLQ 251138Z 2512/2612 27005KT P6SM SKC
     FM251500 26007KT P6SM SKC
     FM260000 23003KT P6SM SKC=


 Latest METARs (Observations) 
How to Decode METARs
16Z KLLQ 251553Z AUTO 27009KT 10SM -RA CLR 22/14 A3015 RMK AO2 RAB48
         SLP207 P0000 T02220144
         
15Z KLLQ 251453Z AUTO 26007KT 10SM CLR 19/13 A3016 RMK AO2 RAB00E09
         SLP210 P0000 60000 T01890133 51012
         
14Z KLLQ 251353Z AUTO 27006KT 10SM CLR 17/12 A3016 RMK AO2 SLP210
         T01670122
         
13Z KLLQ 251253Z AUTO 27006KT 10SM CLR 14/12 A3013 RMK AO2 SLP201
         T01440122
         
12Z KLLQ 251153Z AUTO 27005KT 10SM CLR 14/12 A3012 RMK AO2 SLP198
         T01390117 10150 20117 51006
         
11Z KLLQ 251053Z AUTO 27005KT 10SM CLR 14/12 A3012 RMK AO2 SLP198
         T01440117
         
10Z KLLQ 250953Z AUTO 26005KT 10SM CLR 14/12 A3011 RMK AO2 SLP192
         T01440117
         
09Z KLLQ 250853Z AUTO 26005KT 10SM CLR 14/12 A3010 RMK AO2 SLP192
         T01440122 58002
         
08Z KLLQ 250753Z AUTO 27005KT 10SM CLR 14/12 A3011 RMK AO2 SLP195
         T01390122
         
07Z KLLQ 250653Z AUTO 29003KT 9SM CLR 13/12 A3012 RMK AO2 SLP196
         T01330117
         
***** Today's Observations (Above) *****


Back to Main Page
http://www.srh.noaa.gov/lzk/qfcst.php

USA.gov is the U.S. government's official web portal to all federal, state and local government web resources and services.